Terminal Aerodrome Forecast
Issued by NWS Portland, ME

Current Version | Previous Version | Text Only | Print | Product List | Glossary On
Versions: 1 2 3 4 5 6 7 8 9 10 11 12 13 14 15 16 17 18 19 20 21
381 FTUS41 KGYX 290520 TAFPWM TAF KPWM 290520Z 2906/3006 VRB04KT P6SM BKN250 FM291500 29007KT P6SM SCT060 BKN100 FM291800 30012KT P6SM SCT050 SCT120 FM300000 31007KT P6SM SKC=

USA.gov is the U.S. government's official web portal to all federal, state and local government web resources and services.